Time;durP1;ratioP1;P1;durP2;ratioP2;P2;SDS_P1;SDS_P2;PMS_P1;PMS_P2;Temp;Humidity;BMP_temperature;BMP_pressure;BME280_temperature;BME280_humidity;BME280_pressure;Samples;Min_cycle;Max_cycle;Signal;HPM_P1;HPM_P2
2022/03/05 00:02:13;;;;;;;;;;;-0.50;99.90;;;;;;5115414;28;20301;-57
2022/03/05 00:04:39;;;;;;;;;;;-0.50;99.90;;;;;;5115197;28;19927;-57
2022/03/05 00:07:04;;;;;;;;;;;-0.50;99.90;;;;;;5115098;28;19919;-57
2022/03/05 00:09:30;;;;;;;;;;;-0.50;99.90;;;;;;5115566;28;19920;-57
2022/03/05 00:11:55;;;;;;;;;;;-0.50;99.90;;;;;;5115326;28;20018;-57
2022/03/05 00:14:21;;;;;;;;;;;-0.50;99.90;;;;;;5115003;28;20022;-56
2022/03/05 00:16:46;;;;;;;;;;;-0.50;99.90;;;;;;5115054;28;19919;-57
2022/03/05 00:19:12;;;;;;;;;;;-0.60;99.90;;;;;;5115024;28;19920;-56
2022/03/05 00:21:37;;;;;;;;;;;-0.60;99.90;;;;;;5115354;28;20384;-55
2022/03/05 00:24:03;;;;;;;;;;;-0.50;99.90;;;;;;5115214;28;19927;-57
2022/03/05 00:26:28;;;;;;;;;;;-0.50;99.90;;;;;;5114776;28;20254;-57
2022/03/05 00:28:54;;;;;;;;;;;-0.60;99.90;;;;;;5096617;28;19919;-57
2022/03/05 00:31:19;;;;;;;;;;;-0.60;99.90;;;;;;5114880;28;19959;-57
2022/03/05 00:33:44;;;;;;;;;;;-0.60;99.90;;;;;;5114371;28;19927;-57
2022/03/05 00:36:10;;;;;;;;;;;-0.50;99.90;;;;;;5114931;28;19919;-57
2022/03/05 00:38:36;;;;;;;;;;;-0.50;99.90;;;;;;5096413;28;20392;-57
2022/03/05 00:41:01;;;;;;;;;;;-0.50;99.90;;;;;;5096624;28;20045;-56
2022/03/05 00:43:27;;;;;;;;;;;-0.50;99.90;;;;;;5114763;28;20392;-57
2022/03/05 00:45:52;;;;;;;;;;;-0.50;99.90;;;;;;5096632;28;20015;-57
2022/03/05 00:48:18;;;;;;;;;;;-0.50;99.90;;;;;;5096553;28;19920;-57
2022/03/05 00:50:44;;;;;;;;;;;-0.40;99.90;;;;;;5114892;28;19924;-57
2022/03/05 00:53:11;;;;;;;;;;;-0.50;99.90;;;;;;5114007;28;20343;-57
2022/03/05 00:55:37;;;;;;;;;;;-0.50;99.90;;;;;;5114523;28;19919;-57
2022/03/05 00:58:03;;;;;;;;;;;-0.60;99.90;;;;;;5114399;28;19981;-56
2022/03/05 01:00:28;;;;;;;;;;;-0.60;99.90;;;;;;5114308;28;19920;-57
2022/03/05 01:02:54;;;;;;;;;;;-0.50;99.90;;;;;;5114267;28;19928;-57
2022/03/05 01:05:19;;;;;;;;;;;-0.60;99.90;;;;;;5114412;28;19920;-55
2022/03/05 01:07:45;;;;;;;;;;;-0.60;99.90;;;;;;5114154;28;19920;-57
2022/03/05 01:10:11;;;;;;;;;;;-0.60;99.90;;;;;;5114254;28;19920;-56
2022/03/05 01:12:36;;;;;;;;;;;-0.60;99.90;;;;;;5113288;28;19949;-57
2022/03/05 01:15:03;;;;;;;;;;;-0.60;99.90;;;;;;5114185;28;19920;-57
2022/03/05 01:17:29;;;;;;;;;;;-0.60;99.90;;;;;;5114509;28;19919;-57
2022/03/05 01:19:54;;;;;;;;;;;-0.60;99.90;;;;;;5114401;28;20006;-57
2022/03/05 01:22:20;;;;;;;;;;;-0.60;99.90;;;;;;5114049;28;19920;-57
2022/03/05 01:24:45;;;;;;;;;;;-0.60;99.90;;;;;;5114447;28;20014;-57
2022/03/05 01:27:11;;;;;;;;;;;-0.60;99.90;;;;;;5113892;28;20365;-57
2022/03/05 01:29:36;;;;;;;;;;;-0.50;99.90;;;;;;5113872;28;19920;-56
2022/03/05 01:32:02;;;;;;;;;;;-0.50;99.90;;;;;;5113986;28;19973;-57
2022/03/05 01:34:27;;;;;;;;;;;-0.50;99.90;;;;;;5114249;28;19920;-57
2022/03/05 01:36:53;;;;;;;;;;;-0.50;99.90;;;;;;5113962;28;19926;-57
2022/03/05 01:39:18;;;;;;;;;;;-0.50;99.90;;;;;;5096043;28;19926;-57
2022/03/05 01:41:44;;;;;;;;;;;-0.50;99.90;;;;;;5113971;28;20434;-55
2022/03/05 01:44:10;;;;;;;;;;;-0.60;99.90;;;;;;5113936;28;19962;-56
2022/03/05 01:46:36;;;;;;;;;;;-0.50;99.90;;;;;;5095335;28;19920;-56
2022/03/05 01:49:03;;;;;;;;;;;-0.60;99.90;;;;;;5114060;28;19962;-57
2022/03/05 01:51:28;;;;;;;;;;;-0.60;99.90;;;;;;5113691;28;19926;-57
2022/03/05 01:53:54;;;;;;;;;;;-0.50;99.90;;;;;;5113781;28;19919;-56
2022/03/05 01:56:20;;;;;;;;;;;-0.50;99.90;;;;;;5114175;28;20276;-56
2022/03/05 01:58:45;;;;;;;;;;;-0.50;99.90;;;;;;5113912;28;19920;-57
2022/03/05 02:01:11;;;;;;;;;;;-0.40;99.90;;;;;;5113682;28;19920;-56
2022/03/05 02:03:37;;;;;;;;;;;-0.40;99.90;;;;;;5095655;28;19979;-56
2022/03/05 02:06:02;;;;;;;;;;;-0.40;99.90;;;;;;5113884;28;20370;-56
2022/03/05 02:08:30;;;;;;;;;;;-0.40;99.90;;;;;;5113936;28;19920;-56
2022/03/05 02:10:55;;;;;;;;;;;-0.50;99.90;;;;;;5113673;28;19974;-56
2022/03/05 02:13:20;;;;;;;;;;;-0.40;99.90;;;;;;5113596;28;19955;-57
2022/03/05 02:15:52;;;;;;;;;;;-0.40;99.90;;;;;;5095215;28;20382;-56
2022/03/05 02:18:17;;;;;;;;;;;-0.50;99.90;;;;;;5095428;28;19932;-56
2022/03/05 02:20:43;;;;;;;;;;;-0.50;99.90;;;;;;5095182;28;19924;-56
2022/03/05 02:23:08;;;;;;;;;;;-0.50;99.90;;;;;;5114257;28;19971;-57
2022/03/05 02:25:34;;;;;;;;;;;-0.50;99.90;;;;;;5117604;28;19961;-57
2022/03/05 02:28:00;;;;;;;;;;;-0.50;99.90;;;;;;5117591;28;19930;-56
2022/03/05 02:30:25;;;;;;;;;;;-0.60;99.90;;;;;;5117386;28;19926;-57
2022/03/05 02:32:50;;;;;;;;;;;-0.60;99.90;;;;;;5117995;28;19958;-57
2022/03/05 02:35:16;;;;;;;;;;;-0.60;99.90;;;;;;5117606;28;19943;-57
2022/03/05 02:37:41;;;;;;;;;;;-0.60;99.90;;;;;;5117603;28;19942;-56
2022/03/05 02:40:07;;;;;;;;;;;-0.50;99.90;;;;;;5117538;28;19926;-56
2022/03/05 02:42:33;;;;;;;;;;;-0.50;99.90;;;;;;5117492;28;19919;-56
2022/03/05 02:44:58;;;;;;;;;;;-0.50;99.90;;;;;;5099299;28;19965;-56
2022/03/05 02:47:24;;;;;;;;;;;-0.60;99.90;;;;;;5117341;28;19919;-57
2022/03/05 02:49:49;;;;;;;;;;;-0.60;99.90;;;;;;5117276;28;19924;-55
2022/03/05 02:52:15;;;;;;;;;;;-0.60;99.90;;;;;;5116906;28;19999;-56
2022/03/05 02:54:40;;;;;;;;;;;-0.60;99.90;;;;;;5098727;28;20010;-57
2022/03/05 02:57:06;;;;;;;;;;;-0.60;99.90;;;;;;5117068;28;19920;-57
2022/03/05 02:59:31;;;;;;;;;;;-0.60;99.90;;;;;;5116724;28;20326;-56
2022/03/05 03:01:57;;;;;;;;;;;-0.60;99.90;;;;;;5116949;28;20013;-56
2022/03/05 03:04:22;;;;;;;;;;;-0.60;99.90;;;;;;5117003;28;19923;-57
2022/03/05 03:06:50;;;;;;;;;;;-0.50;99.90;;;;;;5116726;28;19971;-56
2022/03/05 03:09:15;;;;;;;;;;;-0.60;99.90;;;;;;5116842;28;19919;-56
2022/03/05 03:11:41;;;;;;;;;;;-0.50;99.90;;;;;;5116679;28;19926;-56
2022/03/05 03:14:06;;;;;;;;;;;-0.50;99.90;;;;;;5116540;28;20289;-56
2022/03/05 03:16:32;;;;;;;;;;;-0.60;99.90;;;;;;5116511;28;20021;-57
2022/03/05 03:18:57;;;;;;;;;;;-0.60;99.90;;;;;;5116734;28;19946;-57
2022/03/05 03:21:23;;;;;;;;;;;-0.60;99.90;;;;;;5116540;28;20347;-57
2022/03/05 03:23:48;;;;;;;;;;;-0.60;99.90;;;;;;5116494;28;19920;-57
2022/03/05 03:26:14;;;;;;;;;;;-0.60;99.90;;;;;;5115886;28;19919;-57
2022/03/05 03:28:39;;;;;;;;;;;-0.70;99.90;;;;;;5116055;28;19981;-56
2022/03/05 03:31:05;;;;;;;;;;;-0.70;99.90;;;;;;5116403;28;19927;-57
2022/03/05 03:33:30;;;;;;;;;;;-0.70;99.90;;;;;;5098126;28;20010;-55
2022/03/05 03:35:55;;;;;;;;;;;-0.70;99.90;;;;;;5115182;28;19927;-57
2022/03/05 03:38:21;;;;;;;;;;;-0.80;99.90;;;;;;5116170;28;19931;-55
2022/03/05 03:40:46;;;;;;;;;;;-0.80;99.90;;;;;;5115848;28;20289;-56
2022/03/05 03:43:12;;;;;;;;;;;-0.90;99.90;;;;;;5116054;28;19920;-56
2022/03/05 03:45:37;;;;;;;;;;;-0.90;99.90;;;;;;5097937;28;19971;-56
2022/03/05 03:48:03;;;;;;;;;;;-0.90;99.90;;;;;;5115968;28;20330;-56
2022/03/05 03:50:28;;;;;;;;;;;-0.90;99.90;;;;;;5115815;28;19965;-56
2022/03/05 03:52:54;;;;;;;;;;;-1.00;99.90;;;;;;5115764;28;19926;-56
2022/03/05 03:55:22;;;;;;;;;;;-0.90;99.90;;;;;;5116418;28;20440;-56
2022/03/05 03:57:48;;;;;;;;;;;-0.90;99.90;;;;;;5116234;28;19926;-56
2022/03/05 04:00:15;;;;;;;;;;;-1.00;99.90;;;;;;5116055;28;19923;-56
2022/03/05 04:02:41;;;;;;;;;;;-0.90;99.90;;;;;;5116146;28;19920;-56
2022/03/05 04:05:07;;;;;;;;;;;-0.90;99.90;;;;;;5116222;28;20331;-56
2022/03/05 04:10:17;;;;;;;;;;;-1.00;99.90;;;;;;5115913;28;19942;-56
2022/03/05 04:12:42;;;;;;;;;;;-1.00;99.90;;;;;;5115601;28;19920;-57
2022/03/05 04:15:08;;;;;;;;;;;-1.00;99.90;;;;;;5116201;28;20289;-56
2022/03/05 04:17:34;;;;;;;;;;;-1.00;99.90;;;;;;5116213;28;19954;-57
2022/03/05 04:19:59;;;;;;;;;;;-1.00;99.90;;;;;;5116230;28;19920;-57
2022/03/05 04:22:25;;;;;;;;;;;-1.00;99.90;;;;;;5116120;28;19919;-56
2022/03/05 04:24:50;;;;;;;;;;;-1.00;99.90;;;;;;5115538;28;20057;-56
2022/03/05 04:27:16;;;;;;;;;;;-1.00;99.90;;;;;;5115319;28;19919;-57
2022/03/05 04:29:41;;;;;;;;;;;-1.00;99.90;;;;;;5115990;28;19926;-57
2022/03/05 04:32:07;;;;;;;;;;;-1.00;99.90;;;;;;5115461;28;20375;-54
2022/03/05 04:34:33;;;;;;;;;;;-1.00;99.90;;;;;;5116057;28;20404;-56
2022/03/05 04:36:59;;;;;;;;;;;-1.00;99.90;;;;;;5115790;28;19966;-56
2022/03/05 04:39:24;;;;;;;;;;;-1.00;99.90;;;;;;5097640;28;20006;-57
2022/03/05 04:41:50;;;;;;;;;;;-1.00;99.90;;;;;;5115700;28;19919;-56
2022/03/05 04:44:15;;;;;;;;;;;-1.10;99.90;;;;;;5097595;28;19963;-56
2022/03/05 04:46:41;;;;;;;;;;;-1.00;99.90;;;;;;5115342;28;20436;-55
2022/03/05 04:49:06;;;;;;;;;;;-1.00;99.90;;;;;;5116173;28;19919;-55
2022/03/05 04:51:32;;;;;;;;;;;-1.10;99.90;;;;;;5115349;28;19920;-54
2022/03/05 04:53:57;;;;;;;;;;;-1.10;99.90;;;;;;5115540;28;19980;-56
2022/03/05 04:56:23;;;;;;;;;;;-1.10;99.90;;;;;;5115097;28;19926;-54
2022/03/05 04:58:48;;;;;;;;;;;-1.20;99.90;;;;;;5097223;28;19920;-57
2022/03/05 05:01:14;;;;;;;;;;;-1.20;99.90;;;;;;5115442;28;19919;-57
2022/03/05 05:03:39;;;;;;;;;;;-1.20;99.90;;;;;;5115203;28;19942;-56
2022/03/05 05:06:06;;;;;;;;;;;-1.20;99.90;;;;;;5115011;28;19920;-56
2022/03/05 05:08:31;;;;;;;;;;;-1.20;99.90;;;;;;5114931;28;20034;-56
2022/03/05 05:10:57;;;;;;;;;;;-1.20;99.90;;;;;;5096914;28;20436;-56
2022/03/05 05:13:22;;;;;;;;;;;-1.30;99.90;;;;;;5115082;28;19924;-57
2022/03/05 05:15:48;;;;;;;;;;;-1.30;99.90;;;;;;5114964;28;19966;-56
2022/03/05 05:18:13;;;;;;;;;;;-1.30;99.90;;;;;;5115060;28;19926;-57
2022/03/05 05:20:39;;;;;;;;;;;-1.20;99.90;;;;;;5115198;28;19973;-56
2022/03/05 05:23:04;;;;;;;;;;;-1.30;99.90;;;;;;5097164;28;19965;-57
2022/03/05 05:25:30;;;;;;;;;;;-1.30;99.90;;;;;;5115254;28;19920;-55
2022/03/05 05:27:56;;;;;;;;;;;-1.30;99.90;;;;;;5114974;28;19972;-56
2022/03/05 05:30:21;;;;;;;;;;;-1.30;99.90;;;;;;5113983;28;19959;-53
2022/03/05 05:32:47;;;;;;;;;;;-1.40;99.90;;;;;;5114941;28;20324;-56
2022/03/05 05:35:12;;;;;;;;;;;-1.40;99.90;;;;;;5115290;28;20327;-57
2022/03/05 05:37:38;;;;;;;;;;;-1.50;99.90;;;;;;5115251;28;19924;-56
2022/03/05 05:40:03;;;;;;;;;;;-1.50;99.90;;;;;;5096570;28;19920;-56
2022/03/05 05:42:29;;;;;;;;;;;-1.50;99.90;;;;;;5096431;28;20006;-55
2022/03/05 05:44:54;;;;;;;;;;;-1.50;99.90;;;;;;5115074;28;19920;-56
2022/03/05 05:47:20;;;;;;;;;;;-1.50;99.90;;;;;;5115095;28;20405;-57
2022/03/05 05:49:45;;;;;;;;;;;-1.50;99.90;;;;;;5115357;28;19965;-57
2022/03/05 05:52:11;;;;;;;;;;;-1.50;99.90;;;;;;5114587;28;19919;-57
2022/03/05 05:54:36;;;;;;;;;;;-1.50;99.90;;;;;;5114637;28;19920;-57
2022/03/05 05:57:02;;;;;;;;;;;-1.50;99.90;;;;;;5114634;28;20331;-57
2022/03/05 05:59:27;;;;;;;;;;;-1.40;99.90;;;;;;5117848;28;19927;-56
2022/03/05 06:01:53;;;;;;;;;;;-1.40;99.90;;;;;;5083835;28;20047;-55
2022/03/05 06:04:18;;;;;;;;;;;-1.40;99.90;;;;;;5101062;28;19942;-55
2022/03/05 06:06:44;;;;;;;;;;;-1.40;99.90;;;;;;5119089;28;19919;-56
2022/03/05 06:09:09;;;;;;;;;;;-1.40;99.90;;;;;;5101157;28;20014;-57
2022/03/05 06:11:35;;;;;;;;;;;-1.40;99.90;;;;;;5119133;28;19926;-56
2022/03/05 06:14:00;;;;;;;;;;;-1.50;99.90;;;;;;5118899;28;19919;-57
2022/03/05 06:16:26;;;;;;;;;;;-1.50;99.90;;;;;;5118672;28;19920;-57
2022/03/05 06:18:51;;;;;;;;;;;-1.50;99.90;;;;;;5118917;28;19920;-57
2022/03/05 06:21:17;;;;;;;;;;;-1.50;99.90;;;;;;5118942;28;20323;-56
2022/03/05 06:23:42;;;;;;;;;;;-1.40;99.90;;;;;;5118587;28;19959;-56
2022/03/05 06:26:08;;;;;;;;;;;-1.40;99.90;;;;;;5118259;28;19924;-57
2022/03/05 06:28:33;;;;;;;;;;;-1.50;99.90;;;;;;5100167;28;19968;-56
2022/03/05 06:30:59;;;;;;;;;;;-1.40;99.90;;;;;;5118087;28;20013;-57
2022/03/05 06:33:25;;;;;;;;;;;-1.50;99.90;;;;;;5118159;28;19920;-57
2022/03/05 06:35:50;;;;;;;;;;;-1.40;99.90;;;;;;5117895;28;19943;-57
2022/03/05 06:38:15;;;;;;;;;;;-1.40;99.90;;;;;;5117971;28;19926;-56
2022/03/05 06:40:41;;;;;;;;;;;-1.40;99.90;;;;;;5117887;28;19919;-57
2022/03/05 06:43:07;;;;;;;;;;;-1.30;99.90;;;;;;5117959;28;19919;-57
2022/03/05 06:45:32;;;;;;;;;;;-1.30;99.90;;;;;;5118230;28;19919;-57
2022/03/05 06:47:57;;;;;;;;;;;-1.30;99.90;;;;;;5117755;28;19964;-57
2022/03/05 06:50:23;;;;;;;;;;;-1.30;99.90;;;;;;5118034;28;19920;-57
2022/03/05 06:52:49;;;;;;;;;;;-1.20;99.90;;;;;;5117747;28;19920;-57
2022/03/05 06:55:16;;;;;;;;;;;-1.20;99.90;;;;;;5116287;28;19939;-56
2022/03/05 06:57:42;;;;;;;;;;;-1.20;99.90;;;;;;5099446;28;19920;-56
2022/03/05 07:00:09;;;;;;;;;;;-1.10;99.90;;;;;;5117791;28;20006;-57
2022/03/05 07:02:34;;;;;;;;;;;-1.10;99.90;;;;;;5117432;28;19919;-56
2022/03/05 07:05:00;;;;;;;;;;;-1.10;99.90;;;;;;5117413;28;19980;-57
2022/03/05 07:07:25;;;;;;;;;;;-0.80;99.90;;;;;;5116870;28;19933;-57
2022/03/05 07:09:51;;;;;;;;;;;-0.60;99.90;;;;;;5099092;28;20347;-56
2022/03/05 07:12:17;;;;;;;;;;;-0.60;99.90;;;;;;5117752;28;19919;-57
2022/03/05 07:14:48;;;;;;;;;;;-0.50;99.90;;;;;;5117434;28;19920;-57
2022/03/05 07:17:17;;;;;;;;;;;-0.50;99.90;;;;;;5099265;28;20297;-57
2022/03/05 07:19:43;;;;;;;;;;;-0.40;99.90;;;;;;5117100;28;19971;-57
2022/03/05 07:22:09;;;;;;;;;;;-0.30;99.90;;;;;;5117040;28;20014;-57
2022/03/05 07:24:34;;;;;;;;;;;-0.20;99.90;;;;;;5117327;28;19919;-57
2022/03/05 07:26:59;;;;;;;;;;;-0.10;99.90;;;;;;5116974;28;20369;-55
2022/03/05 07:29:25;;;;;;;;;;;0.00;99.90;;;;;;5116713;28;19920;-56
2022/03/05 07:31:50;;;;;;;;;;;0.10;99.90;;;;;;5116857;28;19969;-57
2022/03/05 07:34:16;;;;;;;;;;;0.20;99.90;;;;;;5116652;28;20015;-57
2022/03/05 07:36:41;;;;;;;;;;;0.20;99.90;;;;;;5098271;28;19972;-56
2022/03/05 07:39:10;;;;;;;;;;;0.30;99.90;;;;;;5098344;28;20407;-57
2022/03/05 07:41:36;;;;;;;;;;;0.40;99.90;;;;;;5116492;28;19920;-57
2022/03/05 07:44:02;;;;;;;;;;;0.50;99.90;;;;;;5116663;28;19919;-57
2022/03/05 07:46:27;;;;;;;;;;;0.60;99.90;;;;;;5116095;28;19965;-57
2022/03/05 07:48:53;;;;;;;;;;;0.70;99.90;;;;;;5116089;28;19920;-55
2022/03/05 07:51:18;;;;;;;;;;;0.70;99.90;;;;;;5115982;28;20011;-57
2022/03/05 07:53:44;;;;;;;;;;;0.80;99.90;;;;;;5115958;28;19926;-57
2022/03/05 07:56:10;;;;;;;;;;;0.90;99.90;;;;;;5116066;28;19965;-57
2022/03/05 07:58:35;;;;;;;;;;;1.00;99.90;;;;;;5115899;28;19920;-57
2022/03/05 08:01:01;;;;;;;;;;;1.10;99.90;;;;;;5115793;28;19920;-56
2022/03/05 08:03:26;;;;;;;;;;;1.20;99.90;;;;;;5097461;28;20404;-57
2022/03/05 08:05:52;;;;;;;;;;;1.20;99.90;;;;;;5097307;28;19919;-56
2022/03/05 08:08:17;;;;;;;;;;;1.30;99.90;;;;;;5115599;28;19920;-56
2022/03/05 08:10:42;;;;;;;;;;;1.30;99.90;;;;;;5115661;28;19919;-56
2022/03/05 08:13:08;;;;;;;;;;;1.40;99.90;;;;;;5097436;28;20039;-56
2022/03/05 08:15:34;;;;;;;;;;;1.60;99.90;;;;;;5097131;28;20377;-56
2022/03/05 08:18:00;;;;;;;;;;;1.70;99.90;;;;;;5097098;28;19931;-56
2022/03/05 08:20:30;;;;;;;;;;;1.70;99.90;;;;;;5114927;28;19924;-56
2022/03/05 08:22:56;;;;;;;;;;;1.70;99.90;;;;;;5114900;28;19931;-56
2022/03/05 08:25:22;;;;;;;;;;;;;;;;;;5115231;28;19920;-54
2022/03/05 08:27:47;;;;;;;;;;;1.80;99.90;;;;;;5114933;28;20378;-56
2022/03/05 08:30:15;;;;;;;;;;;2.00;99.90;;;;;;5115112;28;19967;-55
2022/03/05 08:32:40;;;;;;;;;;;1.80;99.90;;;;;;5115028;28;19943;-57
2022/03/05 08:35:07;;;;;;;;;;;2.00;99.90;;;;;;5114879;28;20381;-56
2022/03/05 08:37:33;;;;;;;;;;;2.10;99.90;;;;;;5114699;28;19919;-57
2022/03/05 08:39:59;;;;;;;;;;;;;;;;;;5114734;28;19964;-56
2022/03/05 08:42:24;;;;;;;;;;;2.50;99.90;;;;;;5096340;28;19961;-55
2022/03/05 08:44:50;;;;;;;;;;;2.30;99.90;;;;;;5114737;28;19971;-57
2022/03/05 08:47:15;;;;;;;;;;;;;;;;;;5114671;28;19980;-57
2022/03/05 08:49:41;;;;;;;;;;;2.50;99.90;;;;;;5114562;28;19919;-57
2022/03/05 08:52:07;;;;;;;;;;;2.60;99.90;;;;;;5114651;28;19920;-57
2022/03/05 08:54:32;;;;;;;;;;;2.70;99.90;;;;;;5096374;28;20015;-57
2022/03/05 08:56:58;;;;;;;;;;;2.60;99.90;;;;;;5114835;28;20375;-58
2022/03/05 08:59:23;;;;;;;;;;;2.80;99.90;;;;;;5096359;28;20010;-57
2022/03/05 09:01:49;;;;;;;;;;;2.70;99.90;;;;;;5114165;28;19923;-57
2022/03/05 09:04:14;;;;;;;;;;;2.90;99.90;;;;;;5114189;28;19919;-57
2022/03/05 09:06:40;;;;;;;;;;;2.90;99.90;;;;;;5114273;28;19923;-57
2022/03/05 09:09:06;;;;;;;;;;;3.10;99.90;;;;;;5114240;28;19996;-58
2022/03/05 09:11:32;;;;;;;;;;;3.10;99.90;;;;;;5114485;28;19927;-57
2022/03/05 09:13:58;;;;;;;;;;;3.10;99.90;;;;;;5114291;28;19920;-57
2022/03/05 09:16:24;;;;;;;;;;;3.00;99.90;;;;;;5114173;28;19943;-56
2022/03/05 09:18:49;;;;;;;;;;;3.00;99.90;;;;;;5113927;28;20397;-58
2022/03/05 09:21:15;;;;;;;;;;;2.90;99.90;;;;;;5114099;28;20010;-57
2022/03/05 09:23:40;;;;;;;;;;;3.00;99.90;;;;;;5114057;28;19988;-57
2022/03/05 09:26:06;;;;;;;;;;;3.20;99.90;;;;;;5114140;28;20028;-57
2022/03/05 09:28:31;;;;;;;;;;;3.40;99.90;;;;;;5113844;28;19919;-57
2022/03/05 09:30:58;;;;;;;;;;;3.50;99.90;;;;;;5113839;28;20400;-57
2022/03/05 09:33:24;;;;;;;;;;;3.50;99.90;;;;;;5094695;28;20004;-57
2022/03/05 09:35:50;;;;;;;;;;;3.60;99.90;;;;;;5113961;28;19920;-57
2022/03/05 09:38:15;;;;;;;;;;;3.70;99.90;;;;;;5113842;28;20335;-57
2022/03/05 09:40:41;;;;;;;;;;;3.80;99.90;;;;;;5113780;28;20011;-58
2022/03/05 09:43:06;;;;;;;;;;;3.70;99.90;;;;;;5113641;28;20005;-57
2022/03/05 09:45:32;;;;;;;;;;;3.90;99.90;;;;;;5114201;28;20278;-58
2022/03/05 09:47:58;;;;;;;;;;;3.90;99.90;;;;;;5113439;28;19920;-58
2022/03/05 09:50:34;;;;;;;;;;;3.80;99.90;;;;;;5113692;28;20293;-57
2022/03/05 09:53:00;;;;;;;;;;;4.00;99.90;;;;;;5113358;28;19927;-58
2022/03/05 09:55:25;;;;;;;;;;;4.10;99.90;;;;;;5113577;28;19920;-57
2022/03/05 09:57:51;;;;;;;;;;;4.10;99.90;;;;;;5113590;28;19923;-58
2022/03/05 10:00:16;;;;;;;;;;;4.10;99.90;;;;;;5113473;28;19927;-57
2022/03/05 10:02:43;;;;;;;;;;;4.20;99.90;;;;;;5113367;28;20358;-58
2022/03/05 10:05:27;;;;;;;;;;;4.30;99.90;;;;;;5095252;28;19924;-57
2022/03/05 10:08:00;;;;;;;;;;;4.30;99.90;;;;;;5113475;28;20032;-57
2022/03/05 10:10:25;;;;;;;;;;;4.30;99.90;;;;;;5113474;28;20516;-57
2022/03/05 10:12:51;;;;;;;;;;;4.30;99.90;;;;;;5113120;28;20014;-57
2022/03/05 10:15:23;;;;;;;;;;;4.50;99.90;;;;;;5113032;28;19919;-58
2022/03/05 10:17:58;;;;;;;;;;;4.50;99.90;;;;;;5113538;28;20361;-57
2022/03/05 10:20:25;;;;;;;;;;;4.50;99.90;;;;;;5113397;28;19971;-57
2022/03/05 10:22:53;;;;;;;;;;;4.60;99.90;;;;;;5113370;28;19920;-57
2022/03/05 10:25:26;;;;;;;;;;;4.60;99.90;;;;;;5113256;28;19927;-57
2022/03/05 10:27:52;;;;;;;;;;;4.70;99.90;;;;;;5113088;28;19942;-58
2022/03/05 10:30:27;;;;;;;;;;;4.60;99.90;;;;;;5113244;28;20381;-58
2022/03/05 10:32:52;;;;;;;;;;;4.80;99.90;;;;;;5113222;28;19920;-57
2022/03/05 10:35:18;;;;;;;;;;;4.90;99.90;;;;;;5113570;28;19926;-58
2022/03/05 10:37:44;;;;;;;;;;;;;;;;;;5113228;28;20010;-58
2022/03/05 10:40:13;;;;;;;;;;;5.00;99.90;;;;;;5113085;28;19919;-58
2022/03/05 10:42:39;;;;;;;;;;;5.00;99.90;;;;;;5113389;28;20032;-57
2022/03/05 10:45:05;;;;;;;;;;;5.00;99.90;;;;;;5097297;28;19919;-58
2022/03/05 10:47:43;;;;;;;;;;;4.90;99.90;;;;;;5116883;28;20006;-57
2022/03/05 10:50:15;;;;;;;;;;;5.20;99.90;;;;;;5117335;28;20410;-58
2022/03/05 10:52:47;;;;;;;;;;;5.30;99.90;;;;;;5116698;28;19977;-57
2022/03/05 10:55:16;;;;;;;;;;;5.30;99.90;;;;;;5116962;28;20010;-58
2022/03/05 10:58:01;;;;;;;;;;;5.60;99.90;;;;;;5116828;28;20430;-58
2022/03/05 11:00:27;;;;;;;;;;;5.60;99.90;;;;;;5116674;28;20330;-58
2022/03/05 11:02:54;;;;;;;;;;;5.50;99.90;;;;;;5116552;28;20339;-57
2022/03/05 11:05:19;;;;;;;;;;;5.60;99.90;;;;;;5116748;28;20369;-58
2022/03/05 11:07:47;;;;;;;;;;;5.80;99.90;;;;;;5116732;28;19926;-57
2022/03/05 11:10:12;;;;;;;;;;;5.60;99.90;;;;;;5116490;28;19971;-57
2022/03/05 11:12:38;;;;;;;;;;;5.70;99.90;;;;;;5116657;28;19926;-58
2022/03/05 11:15:04;;;;;;;;;;;;;;;;;;5116476;28;19920;-58
2022/03/05 11:17:30;;;;;;;;;;;5.90;99.90;;;;;;5116240;28;20388;-58
2022/03/05 11:19:55;;;;;;;;;;;6.00;99.90;;;;;;5116465;28;19968;-56
2022/03/05 11:22:21;;;;;;;;;;;6.00;99.90;;;;;;5116300;28;19935;-58
2022/03/05 11:24:46;;;;;;;;;;;6.00;99.90;;;;;;5116403;28;19941;-58
2022/03/05 11:27:15;;;;;;;;;;;6.00;99.90;;;;;;5116216;28;19920;-58
2022/03/05 11:29:57;;;;;;;;;;;6.00;99.90;;;;;;5116167;28;20033;-58
2022/03/05 11:32:27;;;;;;;;;;;6.10;99.90;;;;;;5116289;28;19920;-58
2022/03/05 11:34:53;;;;;;;;;;;6.10;99.90;;;;;;5115905;28;20440;-58
2022/03/05 11:37:25;;;;;;;;;;;6.10;99.90;;;;;;5116078;28;20009;-57
2022/03/05 11:39:50;;;;;;;;;;;6.10;99.90;;;;;;5097733;28;19923;-58
2022/03/05 11:42:30;;;;;;;;;;;6.00;99.90;;;;;;5115913;28;19926;-58
2022/03/05 11:44:55;;;;;;;;;;;6.20;99.90;;;;;;5115849;28;19920;-58
2022/03/05 11:47:22;;;;;;;;;;;6.30;99.90;;;;;;5116065;28;19997;-57
2022/03/05 11:50:00;;;;;;;;;;;6.40;99.90;;;;;;5115787;28;20396;-58
2022/03/05 11:52:37;;;;;;;;;;;6.50;99.90;;;;;;5115255;28;20002;-58
2022/03/05 11:55:16;;;;;;;;;;;6.50;99.90;;;;;;5115605;28;20281;-58
2022/03/05 11:57:42;;;;;;;;;;;6.70;99.90;;;;;;5114883;28;19920;-57
2022/03/05 12:00:08;;;;;;;;;;;6.60;99.90;;;;;;5097290;28;19964;-58
2022/03/05 12:02:46;;;;;;;;;;;6.80;99.90;;;;;;5115314;28;20014;-57
2022/03/05 12:05:30;;;;;;;;;;;6.80;99.90;;;;;;5115467;28;19920;-58
2022/03/05 12:07:56;;;;;;;;;;;6.80;99.90;;;;;;5115399;28;19920;-58
2022/03/05 12:10:21;;;;;;;;;;;6.90;99.90;;;;;;5115334;28;19927;-56
2022/03/05 12:12:57;;;;;;;;;;;7.00;99.90;;;;;;5115244;28;19920;-58
2022/03/05 12:15:26;;;;;;;;;;;6.90;99.90;;;;;;5115319;28;20026;-58
2022/03/05 12:17:52;;;;;;;;;;;7.00;99.90;;;;;;5115013;28;20377;-57
2022/03/05 12:20:20;;;;;;;;;;;7.00;99.90;;;;;;5115251;28;19923;-58
2022/03/05 12:22:46;;;;;;;;;;;7.00;99.90;;;;;;5115257;28;19943;-58
2022/03/05 12:25:12;;;;;;;;;;;7.10;99.90;;;;;;5115130;28;20056;-58
2022/03/05 12:27:43;;;;;;;;;;;7.20;99.90;;;;;;5114941;28;20002;-58
2022/03/05 12:30:11;;;;;;;;;;;7.10;99.90;;;;;;5115051;28;19930;-58
2022/03/05 12:32:37;;;;;;;;;;;7.20;99.90;;;;;;5096516;28;19920;-58
2022/03/05 12:35:03;;;;;;;;;;;7.20;99.90;;;;;;5114925;28;19920;-58
2022/03/05 12:37:29;;;;;;;;;;;7.30;99.90;;;;;;5114890;28;19920;-57
2022/03/05 12:39:56;;;;;;;;;;;7.30;99.90;;;;;;5114859;28;20010;-58
2022/03/05 12:42:22;;;;;;;;;;;7.40;99.90;;;;;;5114922;28;19923;-58
2022/03/05 12:44:47;;;;;;;;;;;7.30;99.90;;;;;;5114671;28;20284;-58
2022/03/05 12:47:13;;;;;;;;;;;7.50;99.90;;;;;;5114408;28;20365;-58
2022/03/05 12:49:38;;;;;;;;;;;7.60;99.90;;;;;;5114656;28;19978;-58
2022/03/05 12:52:05;;;;;;;;;;;7.60;99.90;;;;;;5114342;28;20358;-57
2022/03/05 12:54:31;;;;;;;;;;;7.60;99.90;;;;;;5114639;28;19952;-58
2022/03/05 12:56:57;;;;;;;;;;;7.80;99.90;;;;;;5114363;28;20399;-57
2022/03/05 12:59:23;;;;;;;;;;;7.80;99.90;;;;;;5114337;28;19920;-58
2022/03/05 13:01:49;;;;;;;;;;;7.80;99.90;;;;;;5096072;28;19919;-58
2022/03/05 13:04:16;;;;;;;;;;;7.70;99.90;;;;;;5114435;28;19964;-58
2022/03/05 13:06:44;;;;;;;;;;;7.60;99.90;;;;;;5114290;28;19926;-57
2022/03/05 13:09:16;;;;;;;;;;;7.70;99.90;;;;;;5114435;28;19934;-58
2022/03/05 13:11:42;;;;;;;;;;;7.70;99.90;;;;;;5114185;28;19927;-58
2022/03/05 13:14:07;;;;;;;;;;;7.60;99.90;;;;;;5114590;28;19924;-58
2022/03/05 13:16:36;;;;;;;;;;;7.80;99.90;;;;;;5114261;28;20440;-58
2022/03/05 13:19:03;;;;;;;;;;;7.90;99.90;;;;;;5114251;28;19959;-56
2022/03/05 13:21:29;;;;;;;;;;;7.70;99.90;;;;;;5114291;28;20362;-57
2022/03/05 13:23:55;;;;;;;;;;;7.80;99.90;;;;;;5114011;28;19921;-58
2022/03/05 13:26:22;;;;;;;;;;;7.80;99.90;;;;;;5113728;28;19973;-58
2022/03/05 13:28:48;;;;;;;;;;;7.90;99.50;;;;;;5113899;28;20014;-58
2022/03/05 13:31:13;;;;;;;;;;;8.00;99.90;;;;;;5114002;28;19966;-58
2022/03/05 13:33:46;;;;;;;;;;;8.00;99.20;;;;;;5113807;28;20270;-58
2022/03/05 13:36:12;;;;;;;;;;;7.90;99.10;;;;;;5113875;28;19948;-58
2022/03/05 13:38:38;;;;;;;;;;;7.90;99.00;;;;;;5113836;28;19982;-58
2022/03/05 13:41:04;;;;;;;;;;;8.00;99.80;;;;;;5113771;28;19942;-57
2022/03/05 13:43:30;;;;;;;;;;;8.10;99.90;;;;;;5095481;28;20377;-58
2022/03/05 13:45:55;;;;;;;;;;;8.10;99.90;;;;;;5114062;28;19919;-57
2022/03/05 13:48:21;;;;;;;;;;;8.20;99.90;;;;;;5113493;28;19920;-57
2022/03/05 13:50:47;;;;;;;;;;;8.40;99.90;;;;;;5113604;28;19923;-58
2022/03/05 13:53:12;;;;;;;;;;;8.40;97.60;;;;;;5113469;28;20000;-58
2022/03/05 13:55:38;;;;;;;;;;;8.30;98.00;;;;;;5095262;28;19926;-56
2022/03/05 13:58:03;;;;;;;;;;;8.40;97.90;;;;;;5113335;28;19927;-57
2022/03/05 14:00:31;;;;;;;;;;;8.40;96.90;;;;;;5113641;28;19919;-58
2022/03/05 14:02:56;;;;;;;;;;;8.30;97.30;;;;;;5113588;28;20362;-58
2022/03/05 14:05:27;;;;;;;;;;;8.40;96.10;;;;;;5113433;28;19919;-58
2022/03/05 14:08:10;;;;;;;;;;;8.60;97.00;;;;;;5113484;28;19989;-58
2022/03/05 14:10:37;;;;;;;;;;;8.60;97.00;;;;;;5113278;28;20002;-58
2022/03/05 14:13:02;;;;;;;;;;;8.50;95.10;;;;;;5095212;28;19919;-58
2022/03/05 14:15:32;;;;;;;;;;;8.60;96.20;;;;;;5113638;28;20060;-58
2022/03/05 14:18:07;;;;;;;;;;;8.50;95.20;;;;;;5095451;28;19921;-58
2022/03/05 14:20:46;;;;;;;;;;;8.40;94.90;;;;;;5116468;28;19926;-58
2022/03/05 14:23:12;;;;;;;;;;;8.40;93.80;;;;;;5099156;28;19927;-58
2022/03/05 14:25:38;;;;;;;;;;;8.40;94.10;;;;;;5117548;28;19923;-58